Briefing drone pour Sorbiers

Rechercher une autre localisation

Conditions de vol :


Nous sommes le : Mercredi 19 janvier 2022
Il est 05:19 UTC (06:19 LT)

Lever de soleil : 06:49 UTC (07:49 LT)
Coucher de soleil : 16:56 UTC (17:56 LT)

Météo

L'essentiel des conditions de vol

VIGILANCE MÉTÉO FRANCE - Loire (42)
Vigilance Jaune : Neige-verglas
CARTE TEMSI
CARTES DES FRONTS
METAR de LFMH
LFMH 190500Z AUTO 00000KT 4400 BR FEW008 M05/M06 Q1030

Date d'émission: 19/01/2022
Heure d'émission: 05:00 UTC
Vent: Calme
Visibilité horizontale: 4400 m
Plafond :
- Peu de nuages à 800ft (244m)
Température: -5 °C
Point de rosée: -6 °C
Humidité: 93%
Pression (QNH): 1030 hPa
Conditions: Brume
TAF de LFMH
LFMH 161901Z 1619/1712 CNL

Conditions prévues :

Heure d'émission : Bulletin éffectué le 16 à 19:00 UTC
Prévision : Valide du 16 a 19:00 UTC au 17 a 12:00 UTC
Nuages : à 0ft (0 m)
WEBCAM POUR SORBIERS

Réglementation

Voler en sécurité

CARTES AERONAUTIQUE 1/500.000
CARTES VAC (LFMH)
SUP AIP




Chargement des AIP...
NOTAM (SORBIERS + Terrain à proximité / FIR )




Chargement des NOTAMS...
CONTACT PREFECTURE 42


Avertissement : Les données mises à disposition sont indicatives. Oxygène Drone ne pourra être tenu responsable de dégâts causés aux biens et aux personnes.